createdAt,value
2023-02-16T00:01:55.870Z,-1.4
2023-02-16T00:07:02.481Z,-1.4
2023-02-16T00:12:08.989Z,-1.6
2023-02-16T00:17:15.585Z,-1.4
2023-02-16T00:22:22.164Z,-1.3
2023-02-16T00:27:28.783Z,-1.1
2023-02-16T00:32:34.627Z,-1.3
2023-02-16T00:37:41.145Z,-1.2
2023-02-16T00:42:47.722Z,-1.2
2023-02-16T00:47:54.376Z,-1.3
2023-02-16T00:53:00.872Z,-1.5
2023-02-16T00:58:07.456Z,-1.5
2023-02-16T01:03:14.026Z,-1.5
2023-02-16T01:08:20.605Z,-1.6
2023-02-16T01:13:27.161Z,-1.6
2023-02-16T01:23:40.313Z,-1.5
2023-02-16T01:28:46.879Z,-1.6
2023-02-16T01:33:53.475Z,-1.5
2023-02-16T01:38:59.302Z,-1.5
2023-02-16T01:44:05.891Z,-1.5
2023-02-16T01:49:12.462Z,-1.6
2023-02-16T01:54:19.048Z,-1.6
2023-02-16T01:59:25.602Z,-1.7
2023-02-16T02:04:32.196Z,-1.7
2023-02-16T02:09:38.739Z,-1.6
2023-02-16T02:14:45.323Z,-1.6
2023-02-16T02:55:37.915Z,-2
2023-02-16T03:00:44.511Z,-1.8
2023-02-16T03:05:51.077Z,-1.9
2023-02-16T03:10:57.651Z,-1.9
2023-02-16T03:16:04.217Z,-1.9
2023-02-16T03:21:10.096Z,-1.9
2023-02-16T03:26:16.685Z,-1.7
2023-02-16T03:31:23.275Z,-1.9
2023-02-16T03:36:29.102Z,-2.1
2023-02-16T03:41:35.673Z,-2
2023-02-16T03:46:42.236Z,-2.1
2023-02-16T03:51:48.904Z,-2.1
2023-02-16T03:56:55.424Z,-2.2
2023-02-16T04:02:02.001Z,-1.9
2023-02-16T04:07:08.576Z,-1.9
2023-02-16T04:12:15.157Z,-2
2023-02-16T04:17:21.729Z,-2.1
2023-02-16T04:22:27.608Z,-2
2023-02-16T04:27:34.195Z,-1.9
2023-02-16T04:32:40.762Z,-1.8
2023-02-16T04:37:47.349Z,-2
2023-02-16T04:42:53.910Z,-2.1
2023-02-16T04:47:59.749Z,-2.2
2023-02-16T04:53:06.329Z,-2
2023-02-16T04:58:12.890Z,-1.9
2023-02-16T05:03:19.473Z,-1.9
2023-02-16T05:08:26.052Z,-1.8
2023-02-16T05:13:32.607Z,-1.7
2023-02-16T05:18:39.188Z,-1.4
2023-02-16T05:23:45.763Z,-1.5
2023-02-16T05:28:52.333Z,-1.5
2023-02-16T05:33:58.944Z,-1.5
2023-02-16T05:39:05.497Z,-1.5
2023-02-16T05:44:12.065Z,-1.5
2023-02-16T05:49:18.636Z,-1.4
2023-02-16T05:54:24.492Z,-1.2
2023-02-16T05:59:31.082Z,-1.3
2023-02-16T06:04:37.652Z,-1.4
2023-02-16T06:09:44.211Z,-1.4
2023-02-16T06:14:50.802Z,-1.4
2023-02-16T06:19:57.400Z,-1.3
2023-02-16T06:25:03.975Z,-1.2
2023-02-16T06:30:10.522Z,-1.3
2023-02-16T06:35:17.111Z,-1.3
2023-02-16T06:40:23.660Z,-1.3
2023-02-16T06:45:30.248Z,-1.3
2023-02-16T06:50:36.815Z,-1.3
2023-02-16T06:55:43.390Z,-1.2
2023-02-16T07:00:49.254Z,-1.2
2023-02-16T07:05:55.792Z,-1
2023-02-16T07:11:02.404Z,-0.8
2023-02-16T07:16:09.013Z,-0.7
2023-02-16T07:21:15.517Z,-0.6
2023-02-16T07:26:22.093Z,-0.4
2023-02-16T07:31:28.757Z,-0.2
2023-02-16T07:36:35.250Z,-0.1
2023-02-16T07:41:41.864Z,0
2023-02-16T07:46:48.519Z,0.1
2023-02-16T07:51:54.991Z,0
2023-02-16T07:57:01.751Z,-0.1
2023-02-16T08:02:08.208Z,0
2023-02-16T08:07:14.024Z,0.7
2023-02-16T08:12:20.581Z,1.7
2023-02-16T08:17:27.148Z,1.5
2023-02-16T08:22:33.674Z,2.4
2023-02-16T08:27:40.315Z,2.5
2023-02-16T08:32:46.866Z,3.2
2023-02-16T08:37:53.452Z,3.3
2023-02-16T08:42:59.993Z,3.5
2023-02-16T08:48:06.616Z,4.1
2023-02-16T08:53:13.113Z,5.8
2023-02-16T08:58:19.713Z,6.9
2023-02-16T09:03:26.256Z,6.4
2023-02-16T09:08:32.822Z,6.7
2023-02-16T09:13:39.402Z,8.1
2023-02-16T09:18:45.960Z,10.3
2023-02-16T09:23:52.686Z,10.5
2023-02-16T09:28:58.185Z,9.4
2023-02-16T09:34:03.614Z,10.3
2023-02-16T09:39:09.925Z,10.8
2023-02-16T09:44:16.270Z,11.5
2023-02-16T09:49:22.575Z,12.9
2023-02-16T09:54:28.888Z,11.9
2023-02-16T09:59:35.228Z,12.4
2023-02-16T10:04:41.547Z,15.6
2023-02-16T10:09:47.879Z,17.3
2023-02-16T10:14:54.215Z,16
2023-02-16T10:20:00.529Z,13.5
2023-02-16T10:25:06.816Z,13.7
2023-02-16T10:30:13.145Z,12.9
2023-02-16T10:35:19.464Z,13.2
2023-02-16T10:40:24.905Z,12.6
2023-02-16T10:45:31.322Z,13.3
2023-02-16T10:55:43.877Z,11.1
2023-02-16T11:00:50.201Z,10.7
2023-02-16T11:05:56.556Z,11.5
2023-02-16T11:11:02.823Z,11.2
2023-02-16T11:16:09.179Z,11.9
2023-02-16T11:21:15.489Z,11.1
2023-02-16T11:26:21.844Z,11.9
2023-02-16T11:31:28.235Z,11.6
2023-02-16T11:36:34.474Z,12.8
2023-02-16T11:41:40.785Z,13.5
2023-02-16T11:46:46.217Z,12.6
2023-02-16T11:51:52.601Z,13
2023-02-16T11:56:58.859Z,12.2
2023-02-16T12:02:05.173Z,12.6
2023-02-16T12:07:11.502Z,12.6
2023-02-16T12:12:17.836Z,12.4
2023-02-16T12:17:24.143Z,12.5
2023-02-16T12:22:30.465Z,12.5
2023-02-16T12:27:36.789Z,13
2023-02-16T12:32:43.088Z,12.7
2023-02-16T12:37:49.501Z,12.6
2023-02-16T12:42:55.747Z,12.8
2023-02-16T12:48:02.075Z,12.5
2023-02-16T12:53:07.503Z,13.1
2023-02-16T12:58:13.918Z,13.3
2023-02-16T13:03:20.138Z,13.3
2023-02-16T13:08:26.481Z,13.3
2023-02-16T13:13:32.808Z,13.5
2023-02-16T13:18:39.267Z,13.4
2023-02-16T13:23:45.587Z,12.9
2023-02-16T13:28:51.799Z,12.8
2023-02-16T13:33:58.202Z,12.6
2023-02-16T13:39:04.446Z,12.9
2023-02-16T13:44:10.920Z,12.6
2023-02-16T13:49:17.267Z,12.7
2023-02-16T13:54:23.501Z,12.6
2023-02-16T13:59:28.954Z,12.8
2023-02-16T14:04:35.235Z,12.6
2023-02-16T14:09:41.653Z,12.5
2023-02-16T14:14:47.954Z,12.1
2023-02-16T14:19:54.253Z,12.2
2023-02-16T14:25:00.411Z,12.1
2023-02-16T14:30:06.726Z,11.9
2023-02-16T14:35:13.053Z,11.7
2023-02-16T14:40:19.365Z,11.6
2023-02-16T14:45:25.672Z,11.5
2023-02-16T14:50:32.010Z,11.4
2023-02-16T14:55:38.398Z,11.2
2023-02-16T15:00:44.636Z,10.9
2023-02-16T15:05:50.101Z,10.9
2023-02-16T15:10:56.411Z,10.9
2023-02-16T15:16:02.888Z,10.9
2023-02-16T15:21:09.076Z,10.9
2023-02-16T15:26:15.406Z,10.7
2023-02-16T15:31:21.705Z,10.3
2023-02-16T15:36:28.080Z,10
2023-02-16T15:41:34.484Z,9.7
2023-02-16T15:46:40.843Z,9.5
2023-02-16T15:51:47.034Z,9.4
2023-02-16T15:56:53.407Z,9.1
2023-02-16T16:01:59.698Z,9
2023-02-16T16:07:06.130Z,8.8
2023-02-16T16:12:11.560Z,8.7
2023-02-16T16:17:17.850Z,8.5
2023-02-16T16:22:24.062Z,8.2
2023-02-16T16:27:30.494Z,8.1
2023-02-16T16:32:36.832Z,7.9
2023-02-16T16:37:43.090Z,8
2023-02-16T16:42:49.408Z,8.1
2023-02-16T16:47:55.836Z,7.9
2023-02-16T16:53:02.156Z,7.9
2023-02-16T16:58:08.460Z,7.8
2023-02-16T17:03:14.842Z,7.9
2023-02-16T17:08:21.032Z,7.8
2023-02-16T17:13:27.385Z,7.8
2023-02-16T17:18:33.782Z,7.8
2023-02-16T17:23:40.148Z,7.6
2023-02-16T17:28:46.440Z,7.6
2023-02-16T17:33:51.874Z,7.8
2023-02-16T17:38:58.114Z,7.9
2023-02-16T17:44:03.629Z,8
2023-02-16T17:49:09.924Z,8
2023-02-16T17:54:16.199Z,7.9
2023-02-16T17:59:22.552Z,7.7
2023-02-16T18:04:28.882Z,7.6
2023-02-16T18:09:35.291Z,7.6
2023-02-16T18:14:41.623Z,7.5
2023-02-16T18:19:47.884Z,7.4
2023-02-16T18:24:54.226Z,7.3
2023-02-16T18:30:00.605Z,7.4
2023-02-16T18:35:06.827Z,7.2
2023-02-16T18:40:13.159Z,7.1
2023-02-16T18:45:19.463Z,7.1
2023-02-16T18:50:25.913Z,7.1
2023-02-16T18:55:32.106Z,7.1
2023-02-16T19:00:38.494Z,7.1
2023-02-16T19:05:43.922Z,7.3
2023-02-16T19:10:50.290Z,7.4
2023-02-16T19:15:56.550Z,7.2
2023-02-16T19:21:02.953Z,7.2
2023-02-16T19:26:09.197Z,7.1
2023-02-16T19:31:15.619Z,7
2023-02-16T19:36:21.919Z,6.9
2023-02-16T19:41:28.283Z,7
2023-02-16T19:46:34.512Z,7.2
2023-02-16T19:51:40.798Z,7
2023-02-16T19:56:47.201Z,7
2023-02-16T20:01:53.453Z,6.9
2023-02-16T20:06:59.897Z,7.1
2023-02-16T20:12:06.137Z,7
2023-02-16T20:17:11.551Z,6.9
2023-02-16T20:22:17.865Z,6.8
2023-02-16T20:27:24.240Z,6.7
2023-02-16T20:32:30.525Z,6.6
2023-02-16T20:37:36.902Z,6.6
2023-02-16T20:42:43.313Z,6.5
2023-02-16T20:47:49.642Z,6.5
2023-02-16T20:52:55.891Z,6.5
2023-02-16T20:58:02.197Z,6.4
2023-02-16T21:03:08.494Z,6.3
2023-02-16T21:08:14.884Z,6.3
2023-02-16T21:13:21.217Z,6.4
2023-02-16T21:18:27.452Z,6.4
2023-02-16T21:23:33.767Z,6.3
2023-02-16T21:28:39.238Z,6.1
2023-02-16T21:33:45.640Z,6
2023-02-16T21:38:52.044Z,6
2023-02-16T21:43:58.204Z,6.1
2023-02-16T21:49:04.528Z,6.1
2023-02-16T21:54:10.852Z,6.2
2023-02-16T21:59:17.182Z,6.1
2023-02-16T22:04:23.597Z,6
2023-02-16T22:09:29.925Z,6.1
2023-02-16T22:14:36.145Z,5.9
2023-02-16T22:19:42.659Z,5.7
2023-02-16T22:24:48.787Z,5.5
2023-02-16T22:29:55.110Z,5.4
2023-02-16T22:35:01.527Z,5.6
2023-02-16T22:40:07.817Z,5.7
2023-02-16T22:45:14.096Z,5.8
2023-02-16T22:50:19.559Z,5.7
2023-02-16T22:55:25.868Z,5.8
2023-02-16T23:00:32.276Z,6
2023-02-16T23:05:38.530Z,5.9
2023-02-16T23:10:44.833Z,5.8
2023-02-16T23:15:51.158Z,5.8
2023-02-16T23:20:57.502Z,5.8
2023-02-16T23:26:03.868Z,5.8
2023-02-16T23:31:10.188Z,5.8
2023-02-16T23:36:16.552Z,5.8
2023-02-16T23:41:22.872Z,5.8
2023-02-16T23:46:29.129Z,5.9
2023-02-16T23:51:35.454Z,6
2023-02-16T23:56:41.772Z,5.9
